Airfield :
LOGIN :

Register | Disclaimer

   EN    FR    IT 

 










Legend :    VFR   Marginal VFR   IFR   Intensive IFR   Very Intensive IFR
Visi :
Ceiling :
>= 8 km
>= 3000ft
5 to 8 km
1000 to 3000 ft
1500m to 5 km
500 to 1000 ft
800 to 1500m
200 to 500 ft
< 800m
< 200 ft
Symbols :   Thunderstorms  Fog  Heavy snow  Heavy precipitations  Wind > 20 kt
SIGMETs :     Misc.  Thunderstorms  Icing  Turbulence  Mountain Waves  Volcanic Ashes







- Airport Elevation : 525 ft
- IATA code : VAF
- Download approach charts


LFLU - Valence

CURRENT METAR :
  • 141000Z AUTO 01017KT 9999 FEW032 24/16 Q1016

EXPIRED METARs :
  • 140930Z AUTO 01016KT 9999 SCT030/// ///TCU 24/16 Q1016
  • 140900Z AUTO 01014KT 9999 FEW028/// ///TCU 23/17 Q1016
  • 140830Z AUTO 01014KT 9999 BKN052/// ///TCU 22/17 Q1016
  • 140800Z AUTO 02014KT 9999 FEW018 SCT078 22/17 Q1016
  • 140730Z AUTO 35011KT 9999 BKN078 BKN090 21/18 Q1016

TAF N/A
No reported NOTAMs for that airfield.
1 SIGMET reported for the Marseille FIR (LFMM) :
 
Embedded thunderstorms
LFMM SIGMET 3 VALID 140930/141200 LFPW
LFMM MARSEILLE FIR/UIR EMBD TS OBS WI N4000 E00800 - N3900 E00800 - N3900 E00445 - N4015 E00530 - N4000 E00800 TOP FL400 STNR NC=



MET'MAP, your aeronautical weather chart ! - Copyright ORBIFLY December 2007 - Disclaimer

ORBIFLY MET'MAP TEAM :

Programming & Development : Alexandra Zaïnal
Concept & Development : Baudouin d'Aumeries
Co-Development & Prog : Marc-Olivier Méhu
Technical & hardware support : Manuel Goepfert

Contact : metmap@orbifly.com




SOURCES & CREDITS :

   NOAA